createdAt,value
2022-09-26T00:02:18.357Z,34.20
2022-09-26T00:07:22.656Z,36.20
2022-09-26T00:12:26.206Z,32.70
2022-09-26T00:17:30.716Z,34.00
2022-09-26T00:22:34.493Z,31.90
2022-09-26T00:27:38.120Z,33.80
2022-09-26T00:32:41.660Z,33.90
2022-09-26T00:37:45.353Z,33.00
2022-09-26T00:42:48.960Z,33.90
2022-09-26T00:47:58.945Z,30.80
2022-09-26T00:53:09.348Z,32.30
2022-09-26T00:58:16.664Z,32.50
2022-09-26T01:03:22.393Z,26.20
2022-09-26T01:08:33.079Z,24.80
2022-09-26T01:13:38.778Z,22.60
2022-09-26T01:18:42.836Z,29.80
2022-09-26T01:24:13.082Z,26.80
2022-09-26T01:29:52.572Z,24.40
2022-09-26T01:35:05.569Z,24.50
2022-09-26T01:40:16.669Z,29.30
2022-09-26T01:45:24.411Z,29.20
2022-09-26T01:50:35.055Z,29.10
2022-09-26T01:55:42.257Z,28.00
2022-09-26T02:00:49.618Z,27.40
2022-09-26T02:05:59.219Z,28.80
2022-09-26T02:11:09.021Z,29.70
2022-09-26T02:16:18.395Z,29.60
2022-09-26T02:21:24.641Z,26.20
2022-09-26T02:26:29.267Z,28.20
2022-09-26T02:31:36.734Z,28.00
2022-09-26T02:36:40.943Z,27.10
2022-09-26T02:41:50.672Z,24.20
2022-09-26T02:47:21.931Z,24.80
2022-09-26T02:52:40.075Z,25.30
2022-09-26T02:57:56.425Z,24.90
2022-09-26T03:03:08.043Z,27.10
2022-09-26T03:08:16.224Z,26.20
2022-09-26T03:13:20.531Z,25.70
2022-09-26T03:18:32.130Z,27.70
2022-09-26T03:23:35.994Z,24.50
2022-09-26T03:28:39.570Z,25.10
2022-09-26T03:33:43.083Z,29.40
2022-09-26T03:38:46.658Z,28.80
2022-09-26T03:43:50.521Z,27.90
2022-09-26T03:48:54.697Z,29.20
2022-09-26T03:53:58.326Z,29.60
2022-09-26T03:59:02.193Z,28.00
2022-09-26T04:04:05.806Z,29.80
2022-09-26T04:09:15.870Z,28.70
2022-09-26T04:14:21.281Z,28.90
2022-09-26T04:19:26.062Z,27.00
2022-09-26T04:24:29.684Z,27.80
2022-09-26T04:29:34.433Z,27.30
2022-09-26T04:34:39.604Z,30.30
2022-09-26T04:39:43.610Z,29.00
2022-09-26T04:44:48.043Z,30.80
2022-09-26T04:49:52.076Z,28.30
2022-09-26T04:54:55.691Z,30.50
2022-09-26T04:59:59.302Z,29.90
2022-09-26T05:05:05.541Z,29.50
2022-09-26T05:10:10.862Z,28.60
2022-09-26T05:15:14.444Z,28.90
2022-09-26T05:20:19.835Z,29.70
2022-09-26T05:25:41.062Z,31.30
2022-09-26T05:30:44.666Z,29.50
2022-09-26T05:35:52.953Z,27.30
2022-09-26T05:40:57.671Z,31.90
2022-09-26T05:46:04.141Z,30.70
2022-09-26T05:51:10.448Z,30.40
2022-09-26T05:56:19.040Z,29.10
2022-09-26T06:01:23.941Z,30.60
2022-09-26T06:06:27.690Z,31.20
2022-09-26T06:11:31.911Z,31.70
2022-09-26T06:16:35.543Z,29.90
2022-09-26T06:21:39.766Z,30.00
2022-09-26T06:26:43.424Z,32.60
2022-09-26T06:31:48.231Z,30.70
2022-09-26T06:36:52.963Z,28.70
2022-09-26T06:41:57.001Z,28.10
2022-09-26T06:47:01.360Z,29.10
2022-09-26T06:52:05.134Z,33.70
2022-09-26T06:57:14.168Z,33.70
2022-09-26T07:02:19.406Z,31.70
2022-09-26T07:07:23.357Z,30.40
2022-09-26T07:12:28.024Z,32.40
2022-09-26T07:17:31.735Z,30.70
2022-09-26T07:22:35.497Z,35.40
2022-09-26T07:27:39.370Z,37.60
2022-09-26T07:34:46.296Z,34.60
2022-09-26T07:45:27.891Z,39.80
2022-09-26T07:55:56.138Z,38.80
2022-09-26T08:06:10.126Z,42.10
2022-09-26T08:11:19.873Z,41.50
2022-09-26T08:16:27.071Z,38.40
2022-09-26T08:21:35.395Z,40.10
2022-09-26T08:26:44.629Z,36.10
2022-09-26T08:31:55.131Z,37.70
2022-09-26T08:37:02.664Z,37.50
2022-09-26T08:42:24.342Z,37.80
2022-09-26T08:47:44.806Z,37.70
2022-09-26T08:52:55.476Z,38.30
2022-09-26T08:58:06.740Z,38.50
2022-09-26T09:03:27.603Z,39.60
2022-09-26T09:08:39.887Z,36.90
2022-09-26T09:13:57.687Z,36.90
2022-09-26T09:19:14.363Z,38.80
2022-09-26T09:24:39.593Z,37.80
2022-09-26T09:30:15.730Z,37.60
2022-09-26T09:35:31.402Z,38.90
2022-09-26T09:40:42.864Z,38.40
2022-09-26T09:45:52.640Z,40.60
2022-09-26T09:51:13.557Z,37.80
2022-09-26T09:56:32.389Z,38.30
2022-09-26T10:01:43.737Z,37.20
2022-09-26T10:06:52.787Z,38.30
2022-09-26T10:12:00.274Z,39.10
2022-09-26T10:17:22.571Z,38.40
2022-09-26T10:22:37.607Z,38.60
2022-09-26T10:27:51.894Z,40.30
2022-09-26T10:33:01.625Z,36.00
2022-09-26T10:38:19.990Z,39.50
2022-09-26T10:43:33.802Z,36.20
2022-09-26T10:48:49.057Z,33.70
2022-09-26T10:54:01.335Z,33.70
2022-09-26T10:59:10.363Z,35.60
2022-09-26T11:04:39.422Z,37.30
2022-09-26T11:09:48.449Z,33.20
2022-09-26T11:14:59.637Z,30.10
2022-09-26T11:20:10.823Z,31.90
2022-09-26T11:25:25.719Z,29.20
2022-09-26T11:30:35.932Z,23.20
2022-09-26T11:35:56.401Z,19.20
2022-09-26T11:41:36.920Z,14.80
2022-09-26T11:46:58.699Z,18.00
2022-09-26T11:52:18.109Z,14.10
2022-09-26T11:57:45.725Z,15.50
2022-09-26T12:03:17.362Z,13.40
2022-09-26T12:08:40.779Z,17.50
2022-09-26T12:13:55.109Z,13.30
2022-09-26T12:19:11.608Z,12.30
2022-09-26T12:24:32.664Z,11.70
2022-09-26T12:35:08.323Z,13.70
2022-09-26T12:40:33.521Z,10.30
2022-09-26T12:46:10.746Z,7.80
2022-09-26T12:51:28.838Z,9.30
2022-09-26T12:56:49.088Z,11.80
2022-09-26T13:02:19.612Z,8.70
2022-09-26T13:07:42.376Z,6.80
2022-09-26T13:13:23.678Z,8.70
2022-09-26T13:18:39.988Z,6.50
2022-09-26T13:23:54.166Z,8.60
2022-09-26T13:29:17.281Z,6.40
2022-09-26T13:34:35.586Z,8.00
2022-09-26T13:39:49.260Z,7.20
2022-09-26T13:45:09.120Z,6.40
2022-09-26T13:50:34.115Z,5.80
2022-09-26T13:55:43.510Z,7.20
2022-09-26T14:00:53.603Z,7.20
2022-09-26T14:06:29.175Z,6.90
2022-09-26T14:11:51.585Z,6.10
2022-09-26T14:17:03.298Z,8.00
2022-09-26T14:29:55.937Z,6.60
2022-09-26T14:35:05.573Z,5.30
2022-09-26T14:40:29.075Z,4.90
2022-09-26T14:45:49.984Z,5.90
2022-09-26T14:51:00.648Z,7.70
2022-09-26T14:56:11.665Z,6.10
2022-09-26T15:01:25.193Z,6.40
2022-09-26T15:06:37.978Z,6.40
2022-09-26T15:11:47.682Z,6.70
2022-09-26T15:16:58.054Z,6.10
2022-09-26T15:22:13.511Z,7.00
2022-09-26T15:27:27.294Z,6.70
2022-09-26T15:32:35.187Z,6.60
2022-09-26T15:37:42.752Z,7.20
2022-09-26T15:43:03.308Z,7.80
2022-09-26T15:48:27.584Z,6.20
2022-09-26T15:53:39.915Z,6.90
2022-09-26T15:58:53.887Z,7.70
2022-09-26T16:04:03.604Z,7.50
2022-09-26T16:09:20.807Z,6.80
2022-09-26T16:14:33.496Z,8.10
2022-09-26T16:19:47.769Z,8.70
2022-09-26T16:24:55.376Z,9.40
2022-09-26T16:30:05.278Z,9.50
2022-09-26T16:35:20.332Z,8.80
2022-09-26T16:40:28.056Z,8.50
2022-09-26T16:45:36.086Z,9.40
2022-09-26T16:50:43.485Z,10.10
2022-09-26T16:55:52.693Z,9.80
2022-09-26T17:01:17.472Z,9.90
2022-09-26T17:06:24.643Z,9.30
2022-09-26T17:11:31.650Z,8.90
2022-09-26T17:16:38.752Z,10.70
2022-09-26T17:21:49.492Z,10.70
2022-09-26T17:27:02.361Z,10.70
2022-09-26T17:32:15.403Z,11.00
2022-09-26T17:37:23.291Z,10.50
2022-09-26T17:42:30.832Z,11.30
2022-09-26T17:47:38.045Z,11.20
2022-09-26T17:52:45.465Z,13.10
2022-09-26T17:57:52.460Z,12.00
2022-09-26T18:03:05.162Z,12.50
2022-09-26T18:08:22.324Z,13.40
2022-09-26T18:13:34.139Z,13.20
2022-09-26T18:18:41.019Z,13.60
2022-09-26T18:23:51.914Z,14.00
2022-09-26T18:29:00.091Z,13.20
2022-09-26T18:34:08.055Z,14.20
2022-09-26T18:39:15.326Z,16.20
2022-09-26T18:44:22.834Z,13.80
2022-09-26T18:49:31.225Z,13.00
2022-09-26T18:54:38.684Z,15.50
2022-09-26T18:59:45.823Z,15.40
2022-09-26T19:04:54.973Z,16.40
2022-09-26T19:10:02.632Z,14.00
2022-09-26T19:15:16.632Z,15.50
2022-09-26T19:20:23.840Z,14.90
2022-09-26T19:25:31.293Z,15.30
2022-09-26T19:30:38.620Z,13.30
2022-09-26T19:35:47.654Z,15.10
2022-09-26T19:40:55.160Z,15.40
2022-09-26T19:46:04.670Z,12.90
2022-09-26T19:51:17.046Z,15.30
2022-09-26T19:56:26.544Z,14.30
2022-09-26T20:01:34.036Z,16.00
2022-09-26T20:06:41.601Z,16.70
2022-09-26T20:11:48.853Z,17.50
2022-09-26T20:16:58.714Z,16.00
2022-09-26T20:22:12.839Z,16.20
2022-09-26T20:27:23.321Z,17.70
2022-09-26T20:32:30.425Z,17.80
2022-09-26T20:37:41.151Z,19.50
2022-09-26T20:42:51.937Z,18.00
2022-09-26T20:47:59.525Z,21.50
2022-09-26T20:53:17.544Z,20.20
2022-09-26T20:58:25.240Z,21.80
2022-09-26T21:03:33.286Z,18.90
2022-09-26T21:08:40.518Z,17.30
2022-09-26T21:13:47.736Z,19.30
2022-09-26T21:18:55.514Z,18.80
2022-09-26T21:24:03.359Z,24.00
2022-09-26T21:29:17.261Z,28.30
2022-09-26T21:34:27.160Z,26.00
2022-09-26T21:39:34.544Z,24.60
2022-09-26T21:44:44.741Z,24.30
2022-09-26T21:49:51.883Z,25.40
2022-09-26T21:55:00.717Z,23.90
2022-09-26T22:00:10.558Z,20.80
2022-09-26T22:05:18.588Z,22.30
2022-09-26T22:10:26.012Z,22.30
2022-09-26T22:17:04.391Z,21.70
2022-09-26T22:22:11.368Z,21.80
2022-09-26T22:32:23.646Z,21.70
2022-09-26T22:37:31.044Z,20.30
2022-09-26T22:42:38.142Z,22.40
2022-09-26T22:52:50.236Z,23.60
2022-09-26T23:03:02.374Z,22.50
2022-09-26T23:08:09.468Z,21.90
2022-09-26T23:13:16.364Z,22.80
2022-09-26T23:23:28.936Z,24.60
2022-09-26T23:28:36.440Z,23.80
2022-09-26T23:33:43.337Z,22.80
2022-09-26T23:38:53.509Z,21.70
2022-09-26T23:44:00.680Z,21.30
2022-09-26T23:49:07.806Z,17.10
2022-09-26T23:59:19.975Z,17.50
